Franconia, NH

1:35 AM EDT on August 04, 2015 (GMT -0400)
Sugar Hill | | Change Station
CLOSE
Current Station
Personal Weather Station
Location: Sugar Hill, NH
Elevation: 900 ft
Nearby Weather Stations

Elev 900 ft 44.22 °N, 71.80 °W | Updated 8 minutes ago

Mostly Cloudy
Mostly Cloudy
59.2 °F
Feels Like 59.2 °F
N
0.0
Wind Variable Wind from ESE

Today
High -- | Low -- °F
--% Chance of Precip.
Yesterday
High -- | Low -- °F
Precip. -- in
5:37 AM 8:07 PM
Waning Gibbous, 81% visible
Pressure 29.82 in
Visibility 5.0 miles
Clouds Few 100 ft
Few 4200 ft
Mostly Cloudy 10000 ft
Dew Point 58 °F
Humidity 95%
Rainfall 0.00 in
Snow Depth Not available.
UV 0 out of 12
Pollen 5.60 out of 12
Air Quality Not available.
Flu Activity Not available.
SPECI KHIE 040532Z AUTO 00000KT 5SM BR FEW001 FEW042 BKN100 15/14 A2982 RMK AO2 T01500139 TSNO

More Conditions Fewer Conditions

Pressure 29.82 in
Visibility 5.0 miles
Clouds Few 100 ft
Few 4200 ft
Mostly Cloudy 10000 ft
Dew Point 58 °F
Humidity 95%
Rainfall 0.00 in
Snow Depth Not available.
UV 0 out of 12
Pollen 5.60 out of 12
Air Quality Not available.
Flu Activity Not available.
SPECI KHIE 040532Z AUTO 00000KT 5SM BR FEW001 FEW042 BKN100 15/14 A2982 RMK AO2 T01500139 TSNO

More Conditions Fewer Conditions

10-Day Weather Forecast

×

Almanac

Astronomy

Aug. 04, 2015 Rise Set
Actual Time
Civil Twilight
Nautical Twilight
Astronomical Twilight
Moon
Length of Visible Light
Length of Day
Tomorrow will be .
, % of the Moon is Illuminated

Today's Extremes

State Highs State Lows

Community

WunderPhotos

Upload Photos

1,843,868 photos uploaded!

WunderBlogs® & News

Nearby

Air Quality

  Air Quality AQ Index Pollutant
Not available.

Snow Depth

Station Depth Elevation

Earthquake Activity

City Distance Mag. Time & Date
Minimum magnitude displayed is 2.5.

Coastal Water Temperatures

Place Temperature

Stations

Nearby Weather Stations

Station Location Temp. Windchill Dew Point Humidity Wind Precip. Elev Updated Type